createdAt,value
2018-04-07T00:01:41.554Z,3.03
2018-04-07T00:04:07.812Z,3.50
2018-04-07T00:06:33.997Z,2.70
2018-04-07T00:09:00.268Z,3.07
2018-04-07T00:11:26.906Z,3.17
2018-04-07T00:13:54.603Z,3.13
2018-04-07T00:16:21.594Z,2.70
2018-04-07T00:18:48.149Z,2.47
2018-04-07T00:21:14.353Z,2.77
2018-04-07T00:23:40.569Z,3.10
2018-04-07T00:26:07.144Z,3.03
2018-04-07T00:28:33.348Z,3.47
2018-04-07T00:30:59.558Z,3.10
2018-04-07T00:33:25.763Z,2.90
2018-04-07T00:35:52.058Z,2.83
2018-04-07T00:38:18.272Z,3.00
2018-04-07T00:40:44.518Z,3.50
2018-04-07T00:43:10.802Z,4.07
2018-04-07T00:45:37.149Z,2.70
2018-04-07T00:48:03.363Z,2.57
2018-04-07T00:50:29.657Z,3.20
2018-04-07T00:52:57.775Z,2.83
2018-04-07T00:55:23.984Z,2.50
2018-04-07T00:57:50.589Z,2.97
2018-04-07T01:00:18.277Z,3.37
2018-04-07T01:02:45.247Z,3.13
2018-04-07T01:05:11.853Z,2.87
2018-04-07T01:07:38.804Z,2.90
2018-04-07T01:10:05.953Z,3.03
2018-04-07T01:12:33.264Z,3.37
2018-04-07T01:14:59.482Z,3.30
2018-04-07T01:17:25.701Z,3.00
2018-04-07T01:19:51.925Z,3.77
2018-04-07T01:22:18.131Z,2.83
2018-04-07T01:24:44.518Z,2.70
2018-04-07T01:27:10.738Z,2.80
2018-04-07T01:29:36.994Z,2.40
2018-04-07T01:32:03.210Z,2.70
2018-04-07T01:34:29.422Z,2.40
2018-04-07T01:36:55.650Z,2.47
2018-04-07T01:39:21.895Z,2.53
2018-04-07T01:41:48.544Z,2.37
2018-04-07T01:44:14.745Z,3.03
2018-04-07T01:46:40.945Z,4.20
2018-04-07T01:49:07.181Z,2.57
2018-04-07T01:51:33.412Z,2.90
2018-04-07T01:53:59.623Z,2.80
2018-04-07T01:56:25.820Z,3.10
2018-04-07T01:58:52.062Z,2.80
2018-04-07T02:01:19.078Z,3.10
2018-04-07T02:03:45.297Z,2.40
2018-04-07T02:06:11.530Z,2.60
2018-04-07T02:08:38.546Z,2.73
2018-04-07T02:11:04.802Z,2.93
2018-04-07T02:13:31.032Z,2.70
2018-04-07T02:15:57.280Z,3.40
2018-04-07T02:18:24.970Z,2.60
2018-04-07T02:20:51.378Z,2.67
2018-04-07T02:23:17.619Z,3.30
2018-04-07T02:25:43.856Z,2.93
2018-04-07T02:28:10.934Z,2.53
2018-04-07T02:30:37.222Z,2.93
2018-04-07T02:33:03.414Z,3.60
2018-04-07T02:35:29.793Z,2.97
2018-04-07T02:37:57.078Z,3.07
2018-04-07T02:40:23.310Z,2.60
2018-04-07T02:42:49.621Z,3.00
2018-04-07T02:45:15.868Z,3.17
2018-04-07T02:47:42.122Z,3.03
2018-04-07T02:50:08.356Z,3.00
2018-04-07T02:52:34.654Z,2.73
2018-04-07T02:55:01.096Z,2.73
2018-04-07T02:57:27.327Z,3.20
2018-04-07T02:59:53.657Z,3.20
2018-04-07T03:02:19.883Z,3.30
2018-04-07T03:04:46.120Z,3.23
2018-04-07T03:07:12.485Z,2.60
2018-04-07T03:09:40.179Z,2.63
2018-04-07T03:12:07.120Z,3.27
2018-04-07T03:14:34.086Z,3.43
2018-04-07T03:17:00.318Z,2.80
2018-04-07T03:19:26.528Z,3.00
2018-04-07T03:21:53.571Z,3.03
2018-04-07T03:24:20.522Z,3.03
2018-04-07T03:26:47.522Z,2.97
2018-04-07T03:29:13.741Z,2.93
2018-04-07T03:31:39.959Z,2.70
2018-04-07T03:34:06.194Z,2.60
2018-04-07T03:36:32.441Z,3.43
2018-04-07T03:38:58.647Z,3.60
2018-04-07T03:41:24.902Z,3.17
2018-04-07T03:43:51.348Z,3.20
2018-04-07T03:46:17.599Z,3.10
2018-04-07T03:48:44.648Z,3.73
2018-04-07T03:51:11.629Z,2.67
2018-04-07T03:53:38.417Z,3.13
2018-04-07T03:56:04.679Z,5.23
2018-04-07T03:58:31.608Z,3.40
2018-04-07T04:00:58.774Z,3.53
2018-04-07T04:03:25.002Z,2.40
2018-04-07T04:05:52.045Z,4.17
2018-04-07T04:08:18.999Z,3.23
2018-04-07T04:10:45.317Z,4.00
2018-04-07T04:13:12.263Z,3.07
2018-04-07T04:15:39.221Z,4.27
2018-04-07T04:18:05.488Z,3.13
2018-04-07T04:20:31.903Z,2.90
2018-04-07T04:22:58.135Z,3.13
2018-04-07T04:25:24.363Z,3.70
2018-04-07T04:27:50.675Z,3.23
2018-04-07T04:30:16.880Z,3.53
2018-04-07T04:32:44.032Z,3.10
2018-04-07T04:35:10.983Z,3.60
2018-04-07T04:37:37.930Z,3.33
2018-04-07T04:40:05.116Z,3.07
2018-04-07T04:42:31.663Z,3.40
2018-04-07T04:44:57.959Z,3.00
2018-04-07T04:47:24.164Z,3.60
2018-04-07T04:49:50.378Z,3.00
2018-04-07T04:52:16.601Z,3.63
2018-04-07T04:54:42.821Z,2.97
2018-04-07T04:57:09.034Z,3.33
2018-04-07T04:59:35.916Z,3.53
2018-04-07T05:02:02.133Z,3.43
2018-04-07T05:04:28.342Z,3.43
2018-04-07T05:06:54.566Z,3.33
2018-04-07T05:09:20.782Z,3.63
2018-04-07T05:11:47.033Z,3.00
2018-04-07T05:14:13.262Z,3.40
2018-04-07T05:16:39.543Z,3.27
2018-04-07T05:19:06.563Z,3.47
2018-04-07T05:21:32.768Z,3.70
2018-04-07T05:23:59.027Z,3.43
2018-04-07T05:26:25.231Z,4.10
2018-04-07T05:28:51.460Z,3.50
2018-04-07T05:31:17.818Z,3.00
2018-04-07T05:33:44.069Z,3.43
2018-04-07T05:36:11.164Z,3.50
2018-04-07T05:38:37.375Z,4.30
2018-04-07T05:41:03.588Z,3.73
2018-04-07T05:43:29.857Z,4.10
2018-04-07T05:45:56.130Z,4.03
2018-04-07T05:48:23.082Z,3.87
2018-04-07T05:50:50.075Z,4.00
2018-04-07T05:53:16.463Z,4.00
2018-04-07T05:55:43.406Z,4.20
2018-04-07T05:58:10.384Z,4.30
2018-04-07T06:00:36.633Z,3.37
2018-04-07T06:03:02.847Z,3.93
2018-04-07T06:05:29.073Z,3.50
2018-04-07T06:07:55.370Z,3.90
2018-04-07T06:10:21.625Z,3.67
2018-04-07T06:12:47.857Z,3.80
2018-04-07T06:15:14.080Z,4.23
2018-04-07T06:17:40.316Z,4.00
2018-04-07T06:20:06.554Z,3.93
2018-04-07T06:22:32.760Z,4.70
2018-04-07T06:24:58.986Z,4.10
2018-04-07T06:27:25.202Z,3.63
2018-04-07T06:29:51.808Z,4.00
2018-04-07T06:32:18.746Z,4.43
2018-04-07T06:34:44.994Z,5.37
2018-04-07T06:37:11.236Z,5.37
2018-04-07T06:39:37.573Z,5.00
2018-04-07T06:42:04.526Z,5.90
2018-04-07T06:44:31.480Z,5.50
2018-04-07T06:46:57.688Z,5.20
2018-04-07T06:49:24.634Z,4.60
2018-04-07T06:51:51.635Z,4.90
2018-04-07T06:54:17.944Z,5.10
2018-04-07T06:56:44.555Z,4.50
2018-04-07T06:59:11.500Z,5.17
2018-04-07T07:01:38.446Z,5.27
2018-04-07T07:04:05.396Z,5.40
2018-04-07T07:06:32.375Z,4.40
2018-04-07T07:08:58.722Z,4.40
2018-04-07T07:11:24.959Z,4.70
2018-04-07T07:13:51.250Z,4.70
2018-04-07T07:16:17.584Z,4.80
2018-04-07T07:18:43.869Z,5.07
2018-04-07T07:21:10.180Z,4.90
2018-04-07T07:23:36.417Z,4.83
2018-04-07T07:26:02.713Z,5.77
2018-04-07T07:28:28.918Z,4.20
2018-04-07T07:30:55.934Z,4.70
2018-04-07T07:33:22.935Z,4.60
2018-04-07T07:35:49.186Z,4.97
2018-04-07T07:38:15.488Z,4.33
2018-04-07T07:40:41.766Z,4.50
2018-04-07T07:43:07.999Z,4.90
2018-04-07T07:45:34.206Z,6.50
2018-04-07T07:48:00.630Z,4.17
2018-04-07T07:50:26.844Z,5.00
2018-04-07T07:52:53.197Z,4.33
2018-04-07T07:55:19.385Z,4.67
2018-04-07T07:57:46.434Z,4.60
2018-04-07T08:00:13.378Z,4.77
2018-04-07T08:02:40.341Z,5.20
2018-04-07T08:05:06.698Z,5.37
2018-04-07T08:07:32.903Z,5.70
2018-04-07T08:10:00.193Z,4.60
2018-04-07T08:12:26.444Z,5.33
2018-04-07T08:14:52.764Z,5.50
2018-04-07T08:17:20.444Z,5.17
2018-04-07T08:19:47.387Z,4.30
2018-04-07T08:22:13.592Z,5.40
2018-04-07T08:24:39.802Z,5.30
2018-04-07T08:27:06.091Z,5.27
2018-04-07T08:29:33.047Z,4.80
2018-04-07T08:31:59.414Z,5.40
2018-04-07T08:34:25.637Z,5.40
2018-04-07T08:36:51.847Z,4.90
2018-04-07T08:39:18.088Z,4.80
2018-04-07T08:41:44.296Z,4.67
2018-04-07T08:44:10.547Z,4.40
2018-04-07T08:46:36.764Z,5.33
2018-04-07T08:49:03.006Z,4.63
2018-04-07T08:51:29.206Z,5.03
2018-04-07T08:53:55.491Z,5.80
2018-04-07T08:56:21.706Z,5.60
2018-04-07T08:58:47.929Z,5.43
2018-04-07T09:01:14.157Z,5.30
2018-04-07T09:03:40.374Z,4.93
2018-04-07T09:06:06.582Z,5.37
2018-04-07T09:08:32.867Z,4.67
2018-04-07T09:10:59.186Z,5.20
2018-04-07T09:13:25.385Z,5.47
2018-04-07T09:15:51.733Z,5.80
2018-04-07T09:18:17.962Z,5.63
2018-04-07T09:20:44.154Z,5.90
2018-04-07T09:23:11.093Z,5.47
2018-04-07T09:25:38.037Z,6.23
2018-04-07T09:28:05.039Z,6.10
2018-04-07T09:30:31.262Z,5.50
2018-04-07T09:32:57.748Z,6.10
2018-04-07T09:35:24.681Z,6.10
2018-04-07T09:37:51.708Z,5.17
2018-04-07T09:40:17.970Z,6.17
2018-04-07T09:42:44.949Z,6.03
2018-04-07T09:45:11.406Z,5.13
2018-04-07T09:47:37.617Z,6.20
2018-04-07T09:50:03.915Z,7.23
2018-04-07T09:52:30.882Z,6.20
2018-04-07T09:54:57.131Z,5.90
2018-04-07T09:57:23.340Z,6.17
2018-04-07T09:59:49.595Z,5.60
2018-04-07T10:02:18.796Z,6.40
2018-04-07T10:04:45.924Z,6.20
2018-04-07T10:07:12.122Z,8.30
2018-04-07T10:09:39.237Z,6.57
2018-04-07T10:12:05.473Z,5.93
2018-04-07T10:14:31.706Z,6.77
2018-04-07T10:16:57.912Z,6.00
2018-04-07T10:19:24.192Z,6.80
2018-04-07T10:21:51.150Z,6.80
2018-04-07T10:24:17.474Z,6.60
2018-04-07T10:26:44.424Z,5.60
2018-04-07T10:29:10.682Z,6.73
2018-04-07T10:31:36.892Z,6.00
2018-04-07T10:34:03.196Z,6.80
2018-04-07T10:36:30.185Z,5.70
2018-04-07T10:38:56.862Z,6.13
2018-04-07T10:41:23.079Z,7.20
2018-04-07T10:43:49.296Z,7.23
2018-04-07T10:46:15.506Z,6.50
2018-04-07T10:48:41.799Z,6.20
2018-04-07T10:51:08.810Z,7.20
2018-04-07T10:53:35.028Z,6.77
2018-04-07T10:56:01.300Z,7.17
2018-04-07T10:58:28.253Z,5.93
2018-04-07T11:00:55.231Z,6.73
2018-04-07T11:03:21.476Z,6.80
2018-04-07T11:05:47.699Z,6.30
2018-04-07T11:08:14.014Z,7.73
2018-04-07T11:10:40.242Z,6.80
2018-04-07T11:13:06.457Z,6.70
2018-04-07T11:15:32.672Z,5.70
2018-04-07T11:17:59.636Z,6.03
2018-04-07T11:20:25.873Z,7.53
2018-04-07T11:22:52.091Z,6.63
2018-04-07T11:25:18.336Z,7.27
2018-04-07T11:27:44.540Z,7.07
2018-04-07T11:30:11.478Z,6.83
2018-04-07T11:32:38.447Z,6.70
2018-04-07T11:35:04.689Z,6.87
2018-04-07T11:37:30.891Z,7.00
2018-04-07T11:39:57.835Z,7.17
2018-04-07T11:42:24.786Z,7.63
2018-04-07T11:44:51.002Z,7.50
2018-04-07T11:47:17.969Z,6.77
2018-04-07T11:49:44.300Z,7.63
2018-04-07T11:52:10.546Z,7.60
2018-04-07T11:54:36.758Z,7.30
2018-04-07T11:57:02.996Z,7.33
2018-04-07T11:59:29.591Z,7.07
2018-04-07T12:01:56.554Z,7.33
2018-04-07T12:04:23.598Z,7.40
2018-04-07T12:06:50.568Z,7.33
2018-04-07T12:09:16.899Z,7.70
2018-04-07T12:11:43.103Z,7.60
2018-04-07T12:14:09.288Z,7.53
2018-04-07T12:16:35.554Z,7.80
2018-04-07T12:19:01.779Z,7.33
2018-04-07T12:21:28.002Z,7.20
2018-04-07T12:23:54.249Z,8.10
2018-04-07T12:26:21.210Z,7.90
2018-04-07T12:28:47.422Z,7.33
2018-04-07T12:31:14.370Z,8.17
2018-04-07T12:33:41.314Z,7.03
2018-04-07T12:36:08.267Z,7.30
2018-04-07T12:38:35.203Z,7.07
2018-04-07T12:41:02.184Z,8.97
2018-04-07T12:43:29.325Z,7.70
2018-04-07T12:45:55.613Z,8.43
2018-04-07T12:48:22.605Z,8.60
2018-04-07T12:50:48.834Z,6.63
2018-04-07T12:53:15.054Z,7.30
2018-04-07T12:55:41.305Z,8.13
2018-04-07T12:58:07.668Z,9.20
2018-04-07T13:00:33.878Z,8.40
2018-04-07T13:03:00.123Z,7.67
2018-04-07T13:05:26.378Z,8.47
2018-04-07T13:07:52.594Z,8.73
2018-04-07T13:10:18.827Z,7.70
2018-04-07T13:12:45.486Z,8.30
2018-04-07T13:15:11.858Z,7.97
2018-04-07T13:17:38.076Z,9.20
2018-04-07T13:20:04.284Z,8.53
2018-04-07T13:22:31.515Z,8.43
2018-04-07T13:24:57.754Z,8.43
2018-04-07T13:27:24.728Z,7.83
2018-04-07T13:29:51.710Z,8.20
2018-04-07T13:32:18.040Z,9.47
2018-04-07T13:34:44.289Z,9.20
2018-04-07T13:37:10.498Z,9.27
2018-04-07T13:39:37.066Z,8.60
2018-04-07T13:42:03.358Z,8.63
2018-04-07T13:44:29.650Z,8.67
2018-04-07T13:46:55.857Z,7.90
2018-04-07T13:49:23.049Z,8.97
2018-04-07T13:51:49.279Z,8.30
2018-04-07T13:54:15.507Z,8.77
2018-04-07T13:56:41.719Z,8.37
2018-04-07T13:59:07.948Z,9.50
2018-04-07T14:01:34.203Z,8.83
2018-04-07T14:04:00.430Z,8.40
2018-04-07T14:06:26.656Z,8.77
2018-04-07T14:08:52.887Z,9.97
2018-04-07T14:11:19.148Z,8.80
2018-04-07T14:13:45.368Z,8.80
2018-04-07T14:16:11.603Z,8.77
2018-04-07T14:18:37.793Z,8.23
2018-04-07T14:21:04.020Z,10.80
2018-04-07T14:23:30.293Z,9.10
2018-04-07T14:25:56.542Z,10.73
2018-04-07T14:28:22.837Z,9.70
2018-04-07T14:30:49.069Z,9.23
2018-04-07T14:33:15.277Z,8.90
2018-04-07T14:35:41.490Z,9.60
2018-04-07T14:38:07.754Z,8.97
2018-04-07T14:40:34.210Z,8.80
2018-04-07T14:43:00.476Z,21.20
2018-04-07T14:45:26.765Z,9.10
2018-04-07T14:47:53.030Z,9.40
2018-04-07T14:50:20.048Z,8.80
2018-04-07T14:52:46.266Z,9.40
2018-04-07T14:55:12.514Z,9.30
2018-04-07T14:57:38.773Z,8.43
2018-04-07T15:00:04.996Z,9.30
2018-04-07T15:02:31.974Z,8.83
2018-04-07T15:04:58.198Z,9.60
2018-04-07T15:07:24.425Z,11.10
2018-04-07T15:09:50.781Z,12.80
2018-04-07T15:12:17.102Z,10.97
2018-04-07T15:14:43.330Z,10.07
2018-04-07T15:17:09.909Z,8.83
2018-04-07T15:19:36.106Z,8.70
2018-04-07T15:22:02.338Z,9.60
2018-04-07T15:24:28.559Z,10.20
2018-04-07T15:26:55.434Z,8.37
2018-04-07T15:29:21.648Z,9.37
2018-04-07T15:31:47.855Z,8.50
2018-04-07T15:34:14.261Z,9.67
2018-04-07T15:36:40.489Z,8.80
2018-04-07T15:39:07.434Z,9.83
2018-04-07T15:41:34.708Z,9.20
2018-04-07T15:44:00.971Z,9.70
2018-04-07T15:46:27.199Z,8.60
2018-04-07T15:48:53.436Z,8.70
2018-04-07T15:51:19.677Z,10.03
2018-04-07T15:53:45.917Z,9.67
2018-04-07T15:56:13.690Z,9.47
2018-04-07T15:58:39.887Z,8.97
2018-04-07T16:01:06.450Z,9.90
2018-04-07T16:03:32.699Z,9.10
2018-04-07T16:05:59.674Z,9.20
2018-04-07T16:08:26.101Z,9.30
2018-04-07T16:10:52.475Z,10.00
2018-04-07T16:13:19.011Z,8.80
2018-04-07T16:15:45.317Z,9.30
2018-04-07T16:18:11.601Z,8.77
2018-04-07T16:20:38.246Z,8.07
2018-04-07T16:23:04.449Z,9.87
2018-04-07T16:25:30.669Z,10.50
2018-04-07T16:27:56.908Z,12.13
2018-04-07T16:30:23.280Z,16.20
2018-04-07T16:32:50.278Z,12.10
2018-04-07T16:35:16.732Z,11.03
2018-04-07T16:37:42.957Z,10.90
2018-04-07T16:40:09.190Z,9.97
2018-04-07T16:42:35.411Z,10.63
2018-04-07T16:45:01.704Z,9.70
2018-04-07T16:47:27.930Z,10.10
2018-04-07T16:49:54.176Z,10.03
2018-04-07T16:52:20.427Z,10.70
2018-04-07T16:54:46.730Z,9.60
2018-04-07T16:57:12.946Z,9.57
2018-04-07T16:59:39.141Z,10.27
2018-04-07T17:02:06.447Z,9.17
2018-04-07T17:04:32.761Z,10.10
2018-04-07T17:06:58.979Z,9.37
2018-04-07T17:09:25.170Z,10.87
2018-04-07T17:11:51.470Z,10.83
2018-04-07T17:14:17.706Z,10.73
2018-04-07T17:16:43.938Z,9.80
2018-04-07T17:19:10.137Z,9.70
2018-04-07T17:21:43.256Z,9.80
2018-04-07T17:24:09.465Z,9.87
2018-04-07T17:26:35.676Z,9.20
2018-04-07T17:29:02.029Z,10.00
2018-04-07T17:31:28.395Z,10.57
2018-04-07T17:33:54.605Z,10.80
2018-04-07T17:36:20.810Z,9.50
2018-04-07T17:38:47.025Z,10.10
2018-04-07T17:41:14.150Z,9.93
2018-04-07T17:43:40.410Z,9.83
2018-04-07T17:46:07.383Z,8.80
2018-04-07T17:48:33.582Z,8.90
2018-04-07T17:50:59.806Z,8.93
2018-04-07T17:53:26.070Z,10.30
2018-04-07T17:55:53.064Z,10.03
2018-04-07T17:58:19.275Z,9.90
2018-04-07T18:00:45.536Z,9.10
2018-04-07T18:03:11.755Z,10.80
2018-04-07T18:05:37.967Z,10.00
2018-04-07T18:08:04.255Z,8.37
2018-04-07T18:10:31.205Z,10.23
2018-04-07T18:12:58.234Z,10.23
2018-04-07T18:15:24.457Z,10.40
2018-04-07T18:17:50.663Z,9.47
2018-04-07T18:20:17.331Z,10.77
2018-04-07T18:22:43.572Z,11.97
2018-04-07T18:25:10.590Z,11.10
2018-04-07T18:27:36.964Z,11.50
2018-04-07T18:30:04.178Z,11.63
2018-04-07T18:32:30.407Z,12.10
2018-04-07T18:34:56.642Z,13.67
2018-04-07T18:37:22.909Z,14.53
2018-04-07T18:39:49.909Z,14.83
2018-04-07T18:42:16.198Z,12.60
2018-04-07T18:44:42.466Z,14.50
2018-04-07T18:47:08.707Z,14.67
2018-04-07T18:49:36.235Z,14.93
2018-04-07T18:52:02.719Z,16.00
2018-04-07T18:54:30.481Z,15.37
2018-04-07T18:56:56.774Z,16.33
2018-04-07T18:59:22.988Z,15.93
2018-04-07T19:01:49.337Z,16.13
2018-04-07T19:04:15.549Z,15.90
2018-04-07T19:06:41.814Z,16.50
2018-04-07T19:09:08.212Z,17.73
2018-04-07T19:11:34.454Z,15.40
2018-04-07T19:14:00.670Z,17.07
2018-04-07T19:16:26.997Z,17.37
2018-04-07T19:18:53.232Z,16.03
2018-04-07T19:21:19.440Z,16.87
2018-04-07T19:23:46.186Z,18.83
2018-04-07T19:26:12.558Z,17.70
2018-04-07T19:28:38.754Z,17.17
2018-04-07T19:31:05.091Z,17.40
2018-04-07T19:33:31.357Z,18.10
2018-04-07T19:35:57.668Z,17.83
2018-04-07T19:38:23.916Z,17.10
2018-04-07T19:40:50.138Z,16.67
2018-04-07T19:43:16.348Z,17.97
2018-04-07T19:45:42.717Z,16.13
2018-04-07T19:48:09.685Z,17.87
2018-04-07T19:50:36.043Z,16.50
2018-04-07T19:53:02.241Z,13.90
2018-04-07T19:55:29.205Z,17.03
2018-04-07T19:57:55.815Z,16.47
2018-04-07T20:00:22.027Z,15.33
2018-04-07T20:02:48.314Z,16.50
2018-04-07T20:05:14.563Z,16.67
2018-04-07T20:07:40.938Z,16.43
2018-04-07T20:10:07.189Z,17.53
2018-04-07T20:12:34.318Z,16.10
2018-04-07T20:15:00.587Z,16.43
2018-04-07T20:17:26.847Z,19.53
2018-04-07T20:19:53.185Z,18.20
2018-04-07T20:22:19.437Z,17.53
2018-04-07T20:24:45.670Z,17.00
2018-04-07T20:27:12.614Z,17.53
2018-04-07T20:29:38.841Z,15.07
2018-04-07T20:32:05.166Z,16.33
2018-04-07T20:34:31.446Z,15.70
2018-04-07T20:36:57.651Z,17.37
2018-04-07T20:39:24.608Z,16.70
2018-04-07T20:41:50.865Z,16.07
2018-04-07T20:44:29.441Z,16.70
2018-04-07T20:46:56.481Z,16.87
2018-04-07T20:49:24.147Z,16.30
2018-04-07T20:51:51.107Z,16.13
2018-04-07T20:54:17.357Z,16.90
2018-04-07T20:56:43.644Z,15.90
2018-04-07T20:59:10.595Z,16.67
2018-04-07T21:01:37.550Z,15.50
2018-04-07T21:04:04.484Z,16.10
2018-04-07T21:06:31.844Z,17.30
2018-04-07T21:08:58.073Z,16.50
2018-04-07T21:11:25.262Z,16.20
2018-04-07T21:13:51.637Z,15.93
2018-04-07T21:16:18.610Z,15.60
2018-04-07T21:18:45.643Z,16.23
2018-04-07T21:21:12.629Z,16.10
2018-04-07T21:23:38.840Z,16.53
2018-04-07T21:26:05.239Z,16.47
2018-04-07T21:28:31.733Z,17.40
2018-04-07T21:30:57.950Z,16.90
2018-04-07T21:33:24.187Z,15.60
2018-04-07T21:35:50.394Z,16.40
2018-04-07T21:38:16.598Z,15.53
2018-04-07T21:40:42.805Z,15.03
2018-04-07T21:43:09.037Z,17.00
2018-04-07T21:45:35.289Z,15.77
2018-04-07T21:48:02.254Z,15.93
2018-04-07T21:50:29.202Z,16.77
2018-04-07T21:52:55.614Z,15.40
2018-04-07T21:55:22.623Z,15.93
2018-04-07T21:57:48.851Z,15.70
2018-04-07T22:00:15.094Z,15.40
2018-04-07T22:02:41.445Z,16.43
2018-04-07T22:05:07.846Z,16.03
2018-04-07T22:07:34.108Z,16.73
2018-04-07T22:10:01.132Z,15.20
2018-04-07T22:12:27.792Z,15.00
2018-04-07T22:14:54.828Z,16.40
2018-04-07T22:17:21.124Z,17.17
2018-04-07T22:19:47.457Z,16.80
2018-04-07T22:22:13.700Z,15.20
2018-04-07T22:24:40.009Z,15.13
2018-04-07T22:27:06.261Z,16.70
2018-04-07T22:29:32.539Z,16.13
2018-04-07T22:31:58.941Z,16.10
2018-04-07T22:34:25.221Z,16.30
2018-04-07T22:36:51.481Z,15.80
2018-04-07T22:39:17.898Z,17.30
2018-04-07T22:41:44.277Z,16.73
2018-04-07T22:44:10.612Z,16.40
2018-04-07T22:46:36.923Z,16.10
2018-04-07T22:49:03.448Z,17.03
2018-04-07T22:51:29.684Z,17.37
2018-04-07T22:53:56.346Z,18.87
2018-04-07T22:56:22.615Z,20.00
2018-04-07T22:58:48.938Z,19.27
2018-04-07T23:01:15.196Z,16.80
2018-04-07T23:03:41.468Z,17.20
2018-04-07T23:06:07.731Z,19.27
2018-04-07T23:08:34.126Z,17.13
2018-04-07T23:11:00.365Z,18.73
2018-04-07T23:13:26.606Z,16.63
2018-04-07T23:15:53.979Z,16.97
2018-04-07T23:18:20.263Z,18.60
2018-04-07T23:20:46.535Z,19.10
2018-04-07T23:23:12.797Z,17.73
2018-04-07T23:25:39.068Z,16.87
2018-04-07T23:28:06.070Z,17.10
2018-04-07T23:30:32.436Z,16.23
2018-04-07T23:32:59.476Z,16.77
2018-04-07T23:35:25.711Z,23.30
2018-04-07T23:37:52.757Z,20.50
2018-04-07T23:40:19.796Z,18.53
2018-04-07T23:42:46.083Z,19.70
2018-04-07T23:45:12.318Z,21.13
2018-04-07T23:47:38.597Z,18.50
2018-04-07T23:50:05.601Z,17.23
2018-04-07T23:52:31.942Z,18.23
2018-04-07T23:54:58.193Z,19.10
2018-04-07T23:57:24.544Z,18.30
2018-04-07T23:59:51.622Z,18.70
